KLAF

Purdue University Airport

Lafayette, Indiana, USA
METAR KLAF 191054Z AUTO 00000KT 10SM CLR M02/M03 A3000 RMK AO2 SLP165 T10171028
Observed Flight Rules
Dec-19 @ 10:54 UTC (45 minutes ago) Visual Flight Rules
Visibility Clouds
10 miles
  • Clear skies
Temperatures Readings
Current -2°C / 28°F
Dewpoint -3°C / 27°F
Humidity 93%
Altimeter 30" Hg
Pressure 1016.5 hPa
Elevation 182
METAR KLAF 191054Z AUTO 00000KT 10SM CLR M02/M03 A3000 RMK AO2 SLP165 T10171028
Observed Flight Rules
Dec-19 @ 10:54 UTC
(45 minutes ago)
VFR
Clouds
  • Clear skies
Temperature Dewpoint
-2°C / 28°F -3°C / 27°F
Humidity Altimeter Pressure
93% 30" Hg 1016.5 hPa